Time;durP1;ratioP1;P1;durP2;ratioP2;P2;SDS_P1;SDS_P2;PMS_P1;PMS_P2;Temp;Humidity;BMP_temperature;BMP_pressure;BME280_temperature;BME280_humidity;BME280_pressure;Samples;Min_cycle;Max_cycle;Signal;HPM_P1;HPM_P2
2021/04/07 00:00:15;;;;;;;6.13;4.60;;;1.00;99.90;;;;;;5071449;28;20492;-68
2021/04/07 00:02:41;;;;;;;6.90;5.30;;;1.00;99.90;;;;;;5070380;28;20841;-68
2021/04/07 00:05:11;;;;;;;6.50;5.30;;;1.00;99.90;;;;;;5070925;28;20473;-68
2021/04/07 00:07:38;;;;;;;5.20;4.30;;;1.00;99.90;;;;;;5071075;28;20469;-67
2021/04/07 00:10:08;;;;;;;5.40;4.90;;;1.00;99.90;;;;;;5057562;28;20570;-68
2021/04/07 00:12:35;;;;;;;6.57;5.10;;;0.90;99.90;;;;;;5059231;28;20554;-68
2021/04/07 00:15:03;;;;;;;5.30;4.50;;;1.00;99.90;;;;;;5068737;28;20527;-68
2021/04/07 00:17:30;;;;;;;7.40;4.40;;;1.00;99.90;;;;;;5070873;28;20483;-68
2021/04/07 00:19:56;;;;;;;6.50;5.17;;;0.90;99.90;;;;;;5071248;28;20482;-68
2021/04/07 00:22:22;;;;;;;6.40;4.57;;;1.00;99.90;;;;;;5070278;28;20554;-71
2021/04/07 00:24:49;;;;;;;5.83;5.03;;;1.00;99.90;;;;;;5062758;28;20475;-69
2021/04/07 00:27:18;;;;;;;6.63;4.20;;;1.00;99.90;;;;;;5051505;28;21033;-68
2021/04/07 00:29:45;;;;;;;3.90;3.50;;;0.90;99.90;;;;;;5051564;28;20486;-68
2021/04/07 00:32:12;;;;;;;5.13;3.90;;;0.90;99.90;;;;;;5052012;28;20513;-68
2021/04/07 00:34:38;;;;;;;5.27;4.40;;;0.90;99.90;;;;;;5051782;28;20452;-68
2021/04/07 00:37:04;;;;;;;5.40;4.53;;;0.90;99.90;;;;;;5051753;28;20546;-68
2021/04/07 00:39:31;;;;;;;5.40;4.00;;;0.90;99.90;;;;;;5052053;28;20539;-68
2021/04/07 00:42:03;;;;;;;9.80;3.93;;;0.90;99.90;;;;;;5051748;28;20571;-68
2021/04/07 00:44:29;;;;;;;6.40;3.70;;;0.90;99.90;;;;;;5051663;28;20926;-68
2021/04/07 00:46:57;;;;;;;5.73;4.40;;;0.90;99.90;;;;;;5051737;28;20534;-68
2021/04/07 00:49:24;;;;;;;5.17;4.67;;;0.90;99.90;;;;;;5051478;28;20480;-68
2021/04/07 00:51:52;;;;;;;7.33;4.63;;;0.90;99.90;;;;;;5051580;28;20978;-68
2021/04/07 00:54:19;;;;;;;4.90;3.47;;;0.80;99.90;;;;;;5051429;28;20450;-69
2021/04/07 00:56:45;;;;;;;6.10;4.07;;;0.80;99.90;;;;;;5052076;28;20440;-69
2021/04/07 00:59:12;;;;;;;4.73;4.23;;;0.70;99.90;;;;;;5051718;28;20842;-69
2021/04/07 01:01:39;;;;;;;5.63;4.80;;;0.70;99.90;;;;;;5051288;28;20559;-69
2021/04/07 01:04:08;;;;;;;5.93;4.23;;;0.70;99.90;;;;;;5051053;28;20451;-69
2021/04/07 01:06:36;;;;;;;5.00;4.40;;;0.70;99.90;;;;;;5058090;28;20483;-69
2021/04/07 01:09:03;;;;;;;5.00;4.00;;;0.70;99.90;;;;;;5068881;28;20496;-69
2021/04/07 01:11:30;;;;;;;5.80;4.63;;;0.70;99.90;;;;;;5069009;28;20463;-68
2021/04/07 01:13:56;;;;;;;6.53;4.00;;;0.70;99.90;;;;;;5069623;28;20503;-68
2021/04/07 01:16:23;;;;;;;8.07;4.70;;;0.70;99.90;;;;;;5070338;28;20860;-68
2021/04/07 01:18:50;;;;;;;5.80;4.70;;;0.70;99.90;;;;;;5058582;28;20476;-69
2021/04/07 01:21:17;;;;;;;6.00;4.60;;;0.60;99.90;;;;;;5051327;28;20543;-69
2021/04/07 01:23:45;;;;;;;9.40;5.07;;;0.60;99.90;;;;;;5051112;28;20538;-68
2021/04/07 01:26:11;;;;;;;7.93;4.90;;;0.60;99.90;;;;;;5050979;28;20551;-68
2021/04/07 01:28:38;;;;;;;6.50;5.47;;;0.50;99.90;;;;;;5050927;28;20543;-68
2021/04/07 01:31:05;;;;;;;5.40;4.67;;;0.50;99.90;;;;;;5051111;28;20507;-68
2021/04/07 01:33:31;;;;;;;7.10;5.53;;;0.40;99.90;;;;;;5050670;28;20531;-68
2021/04/07 01:35:57;;;;;;;7.23;6.23;;;0.40;99.90;;;;;;5051070;28;20546;-68
2021/04/07 01:38:24;;;;;;;5.50;4.80;;;0.40;99.90;;;;;;5051008;28;20869;-69
2021/04/07 01:40:53;;;;;;;10.33;6.50;;;0.30;99.90;;;;;;5050618;28;20527;-68
2021/04/07 01:43:20;;;;;;;6.23;4.80;;;0.40;99.90;;;;;;5050710;28;20534;-68
2021/04/07 01:45:48;;;;;;;7.20;5.10;;;0.30;99.90;;;;;;5050734;28;20487;-68
2021/04/07 01:48:16;;;;;;;10.90;5.73;;;0.30;99.90;;;;;;5051080;28;20471;-68
2021/04/07 01:50:44;;;;;;;7.90;5.53;;;0.20;99.90;;;;;;5050777;28;20507;-68
2021/04/07 01:53:12;;;;;;;12.73;5.43;;;0.20;99.90;;;;;;5050372;28;20448;-68
2021/04/07 01:55:39;;;;;;;8.70;6.40;;;0.20;99.90;;;;;;5050717;28;20470;-68
2021/04/07 01:58:06;;;;;;;8.50;6.53;;;0.20;99.90;;;;;;5050673;28;20527;-68
2021/04/07 02:00:33;;;;;;;8.10;5.90;;;0.20;99.90;;;;;;5050383;28;20467;-69
2021/04/07 02:03:01;;;;;;;7.87;6.20;;;0.20;99.90;;;;;;5050143;28;21007;-68
2021/04/07 02:05:28;;;;;;;7.17;6.47;;;0.20;99.90;;;;;;5050275;28;20440;-68
2021/04/07 02:07:54;;;;;;;7.27;6.50;;;0.20;99.90;;;;;;5050215;28;20518;-68
2021/04/07 02:10:21;;;;;;;7.80;6.03;;;0.20;99.90;;;;;;5050352;28;20583;-68
2021/04/07 02:12:51;;;;;;;10.40;7.27;;;0.20;99.90;;;;;;5049716;28;20546;-69
2021/04/07 02:15:19;;;;;;;7.73;6.13;;;0.20;99.90;;;;;;5050440;28;20452;-68
2021/04/07 02:17:46;;;;;;;10.40;7.27;;;0.20;99.90;;;;;;5050164;28;20535;-69
2021/04/07 02:20:13;;;;;;;7.00;6.30;;;0.20;99.90;;;;;;5050232;28;20472;-69
2021/04/07 02:22:41;;;;;;;10.17;7.00;;;0.20;99.90;;;;;;5049781;28;20495;-69
2021/04/07 02:25:10;;;;;;;9.83;6.77;;;0.10;99.90;;;;;;5049913;28;20479;-69
2021/04/07 02:27:37;;;;;;;10.40;7.73;;;0.00;99.90;;;;;;5049920;28;20540;-69
2021/04/07 02:30:07;;;;;;;10.73;7.63;;;0.10;99.90;;;;;;5049904;28;20522;-69
2021/04/07 02:32:34;;;;;;;8.23;7.13;;;0.10;99.90;;;;;;5049722;28;20543;-68
2021/04/07 02:35:01;;;;;;;9.00;7.77;;;0.10;99.90;;;;;;5049885;28;20838;-69
2021/04/07 02:37:27;;;;;;;9.77;7.30;;;0.00;99.90;;;;;;5049833;28;20462;-69
2021/04/07 02:39:53;;;;;;;9.50;7.20;;;0.00;99.90;;;;;;5049882;28;20487;-68
2021/04/07 02:42:21;;;;;;;12.93;7.30;;;0.10;99.90;;;;;;5049637;28;20499;-69
2021/04/07 02:44:48;;;;;;;7.70;6.83;;;0.20;99.90;;;;;;5050023;28;20554;-68
2021/04/07 02:47:15;;;;;;;11.07;7.63;;;0.20;99.90;;;;;;5049820;28;20440;-69
2021/04/07 02:49:42;;;;;;;9.53;7.03;;;0.30;99.90;;;;;;5049745;28;20574;-69
2021/04/07 02:52:08;;;;;;;8.60;7.20;;;0.30;99.90;;;;;;5051885;28;20571;-68
2021/04/07 02:54:35;;;;;;;9.63;7.93;;;0.30;99.90;;;;;;5053268;28;20581;-68
2021/04/07 02:57:03;;;;;;;9.47;6.63;;;0.40;99.90;;;;;;5053597;28;20535;-69
2021/04/07 02:59:30;;;;;;;8.87;7.30;;;0.40;99.90;;;;;;5053741;28;20527;-69
2021/04/07 03:01:56;;;;;;;11.50;7.53;;;0.40;99.90;;;;;;5053546;28;20561;-68
2021/04/07 03:04:22;;;;;;;11.90;8.53;;;0.50;99.90;;;;;;5053239;28;20484;-69
2021/04/07 03:06:49;;;;;;;7.93;6.40;;;0.50;99.90;;;;;;5053371;28;20464;-68
2021/04/07 03:09:16;;;;;;;10.93;6.80;;;0.60;99.90;;;;;;5053267;28;20483;-69
2021/04/07 03:11:42;;;;;;;8.90;7.03;;;0.60;99.90;;;;;;5052944;28;20464;-68
2021/04/07 03:14:09;;;;;;;7.10;5.77;;;0.60;99.90;;;;;;5053624;28;20601;-69
2021/04/07 03:16:35;;;;;;;10.40;6.40;;;0.70;99.90;;;;;;5053641;28;21010;-69
2021/04/07 03:19:02;;;;;;;9.17;7.03;;;0.70;99.90;;;;;;5053227;28;20538;-68
2021/04/07 03:21:29;;;;;;;7.63;5.60;;;0.70;99.90;;;;;;5053287;28;20876;-68
2021/04/07 03:23:56;;;;;;;8.83;5.70;;;0.70;99.90;;;;;;5052880;28;20641;-68
2021/04/07 03:26:23;;;;;;;7.33;4.90;;;0.80;99.90;;;;;;5053399;28;20565;-68
2021/04/07 03:28:49;;;;;;;9.03;5.77;;;0.80;99.90;;;;;;5053327;28;20508;-68
2021/04/07 03:31:15;;;;;;;9.37;5.67;;;0.80;99.90;;;;;;5053425;28;20550;-69
2021/04/07 03:33:42;;;;;;;6.40;5.60;;;0.80;99.90;;;;;;5052957;28;20462;-68
2021/04/07 03:36:09;;;;;;;6.13;4.83;;;0.80;99.90;;;;;;5053286;28;20551;-68
2021/04/07 03:38:35;;;;;;;6.23;5.00;;;0.80;99.90;;;;;;5053153;28;20547;-68
2021/04/07 03:41:03;;;;;;;9.60;5.43;;;0.80;99.90;;;;;;5053060;28;20468;-68
2021/04/07 03:43:30;;;;;;;7.07;4.80;;;0.80;99.90;;;;;;5052422;28;21002;-68
2021/04/07 03:45:58;;;;;;;6.73;5.27;;;0.90;99.90;;;;;;5053078;28;20531;-68
2021/04/07 03:48:26;;;;;;;6.70;4.00;;;0.90;99.90;;;;;;5052900;28;20531;-68
2021/04/07 03:50:54;;;;;;;5.87;5.10;;;0.80;99.90;;;;;;5052261;28;21058;-68
2021/04/07 03:53:21;;;;;;;5.57;4.30;;;0.80;99.90;;;;;;5052440;28;20531;-68
2021/04/07 03:55:49;;;;;;;5.33;4.33;;;0.90;99.90;;;;;;5052802;28;20551;-68
2021/04/07 03:58:17;;;;;;;6.60;4.90;;;0.90;99.90;;;;;;5052638;28;21084;-67
2021/04/07 04:00:44;;;;;;;5.43;4.07;;;0.90;99.90;;;;;;5052535;28;20517;-68
2021/04/07 04:03:11;;;;;;;5.03;4.43;;;0.90;99.90;;;;;;5051993;28;20863;-68
2021/04/07 04:05:38;;;;;;;5.90;4.40;;;0.90;99.90;;;;;;5052474;28;20497;-68
2021/04/07 04:08:05;;;;;;;4.47;3.90;;;0.80;99.90;;;;;;5052499;28;21020;-68
2021/04/07 04:10:32;;;;;;;5.10;4.00;;;0.80;99.90;;;;;;5052405;28;20629;-67
2021/04/07 04:12:59;;;;;;;7.80;4.03;;;0.90;99.90;;;;;;5052110;28;20540;-68
2021/04/07 04:15:26;;;;;;;6.03;4.67;;;0.90;99.90;;;;;;5052341;28;20443;-68
2021/04/07 04:17:53;;;;;;;4.47;3.90;;;0.90;99.90;;;;;;5052414;28;20538;-68
2021/04/07 04:20:20;;;;;;;5.87;4.33;;;0.90;99.90;;;;;;5052530;28;20526;-68
2021/04/07 04:22:47;;;;;;;6.23;4.33;;;0.90;99.90;;;;;;5051815;28;20941;-68
2021/04/07 04:25:15;;;;;;;5.00;3.80;;;0.90;99.90;;;;;;5052382;28;20499;-69
2021/04/07 04:27:42;;;;;;;3.90;3.10;;;0.90;99.90;;;;;;5052232;28;20508;-67
2021/04/07 04:30:10;;;;;;;6.83;4.37;;;0.90;99.90;;;;;;5052292;28;20579;-68
2021/04/07 04:32:37;;;;;;;5.13;3.90;;;0.90;99.90;;;;;;5051663;28;20547;-67
2021/04/07 04:35:06;;;;;;;5.80;3.80;;;0.90;99.90;;;;;;5052236;28;20594;-68
2021/04/07 04:37:32;;;;;;;4.67;3.33;;;0.90;99.90;;;;;;5051909;28;20542;-68
2021/04/07 04:39:58;;;;;;;5.93;3.27;;;0.90;99.90;;;;;;5051991;28;20523;-69
2021/04/07 04:42:25;;;;;;;6.20;3.60;;;0.90;99.90;;;;;;5051505;28;20547;-68
2021/04/07 04:44:51;;;;;;;5.93;4.83;;;0.90;99.90;;;;;;5051815;28;20536;-68
2021/04/07 04:47:18;;;;;;;5.47;3.50;;;0.90;99.90;;;;;;5052028;28;20539;-69
2021/04/07 04:49:45;;;;;;;7.57;3.27;;;0.90;99.90;;;;;;5051916;28;20572;-68
2021/04/07 04:52:12;;;;;;;7.37;4.03;;;0.90;99.90;;;;;;5051970;28;20554;-69
2021/04/07 04:54:38;;;;;;;5.33;3.17;;;0.90;99.90;;;;;;5051424;28;20487;-69
2021/04/07 04:57:05;;;;;;;6.50;3.83;;;0.90;99.90;;;;;;5051711;28;21027;-69
2021/04/07 04:59:31;;;;;;;6.40;4.00;;;1.00;99.90;;;;;;5051545;28;20528;-68
2021/04/07 05:01:57;;;;;;;6.40;3.30;;;1.00;99.90;;;;;;5051462;28;20551;-68
2021/04/07 05:04:24;;;;;;;6.50;4.03;;;0.90;99.90;;;;;;5051131;28;20444;-68
2021/04/07 05:06:51;;;;;;;4.00;3.20;;;1.00;99.90;;;;;;5051725;28;20559;-68
2021/04/07 05:09:17;;;;;;;4.80;3.27;;;1.00;99.90;;;;;;5051415;28;20617;-69
2021/04/07 05:11:43;;;;;;;4.67;3.37;;;1.00;99.90;;;;;;5051153;28;20479;-68
2021/04/07 05:14:10;;;;;;;4.27;3.30;;;1.00;99.90;;;;;;5050164;28;20479;-68
2021/04/07 05:16:36;;;;;;;4.93;3.40;;;1.00;99.90;;;;;;5050923;28;20535;-68
2021/04/07 05:19:03;;;;;;;5.23;3.30;;;0.90;99.90;;;;;;5051558;28;20535;-68
2021/04/07 05:21:29;;;;;;;5.63;3.67;;;1.00;99.90;;;;;;5051043;28;20472;-68
2021/04/07 05:23:56;;;;;;;5.43;3.90;;;1.00;99.90;;;;;;5050883;28;20531;-68
2021/04/07 05:26:23;;;;;;;5.83;3.70;;;1.00;99.90;;;;;;5051118;28;20535;-71
2021/04/07 05:28:49;;;;;;;6.00;3.47;;;1.00;99.90;;;;;;5051221;28;20879;-69
2021/04/07 05:31:16;;;;;;;5.27;3.43;;;1.00;99.90;;;;;;5051218;28;20521;-68
2021/04/07 05:33:44;;;;;;;7.10;3.43;;;1.10;99.90;;;;;;5050585;28;20539;-68
2021/04/07 05:36:12;;;;;;;4.00;3.23;;;1.10;99.90;;;;;;5050653;28;21010;-68
2021/04/07 05:38:38;;;;;;;5.47;3.30;;;1.10;99.90;;;;;;5050821;28;20448;-68
2021/04/07 05:41:06;;;;;;;7.70;3.60;;;1.10;99.90;;;;;;5051052;28;20543;-68
2021/04/07 05:43:34;;;;;;;8.20;4.83;;;1.20;99.90;;;;;;5050488;28;20518;-68
2021/04/07 05:46:01;;;;;;;6.80;5.17;;;1.20;99.90;;;;;;5050890;28;20513;-68
2021/04/07 05:48:28;;;;;;;4.67;3.40;;;1.20;99.90;;;;;;5050947;28;20540;-69
2021/04/07 05:50:55;;;;;;;3.83;2.83;;;1.30;99.90;;;;;;5050789;28;20578;-69
2021/04/07 05:53:23;;;;;;;5.80;4.00;;;1.30;99.90;;;;;;5050522;28;20454;-68
2021/04/07 05:55:50;;;;;;;5.50;3.30;;;1.40;99.90;;;;;;5050247;28;20440;-68
2021/04/07 05:58:18;;;;;;;8.83;4.30;;;1.40;99.90;;;;;;5050604;28;20444;-68
2021/04/07 06:00:45;;;;;;;6.07;3.17;;;1.40;99.90;;;;;;5050353;28;20535;-68
2021/04/07 06:03:12;;;;;;;13.40;4.13;;;1.40;99.90;;;;;;5051750;28;20516;-69
2021/04/07 06:05:40;;;;;;;6.70;3.67;;;1.30;99.90;;;;;;5050636;28;20471;-68
2021/04/07 06:08:08;;;;;;;6.27;3.40;;;1.40;99.90;;;;;;5050308;28;20535;-68
2021/04/07 06:10:37;;;;;;;8.90;3.53;;;1.40;99.90;;;;;;5049986;28;20575;-68
2021/04/07 06:13:04;;;;;;;4.97;3.40;;;1.50;99.90;;;;;;5050154;28;20573;-69
2021/04/07 06:15:32;;;;;;;6.03;4.00;;;1.50;99.90;;;;;;5050200;28;20559;-68
2021/04/07 06:18:01;;;;;;;5.27;3.53;;;1.50;99.90;;;;;;5050228;28;20532;-68
2021/04/07 06:20:31;;;;;;;7.03;3.60;;;1.60;99.90;;;;;;5050171;28;20456;-68
2021/04/07 06:22:58;;;;;;;6.10;3.40;;;1.60;99.90;;;;;;5049679;28;20496;-68
2021/04/07 06:25:25;;;;;;;3.87;3.30;;;1.60;99.90;;;;;;5051595;28;20811;-68
2021/04/07 06:27:52;;;;;;;5.03;3.40;;;1.70;99.90;;;;;;5054449;28;20542;-69
2021/04/07 06:30:23;;;;;;;5.37;3.00;;;1.70;99.90;;;;;;5053841;28;21155;-68
2021/04/07 06:32:51;;;;;;;5.13;2.73;;;1.70;99.90;;;;;;5053747;28;20468;-68
2021/04/07 06:35:17;;;;;;;5.57;3.80;;;1.80;99.90;;;;;;5053681;28;20443;-68
2021/04/07 06:37:43;;;;;;;5.07;3.33;;;1.90;99.90;;;;;;5053508;28;20547;-68
2021/04/07 06:40:11;;;;;;;7.30;4.20;;;2.00;99.90;;;;;;5053735;28;20828;-68
2021/04/07 06:42:37;;;;;;;4.83;3.50;;;2.10;99.90;;;;;;5053127;28;20543;-68
2021/04/07 06:45:05;;;;;;;4.50;2.87;;;2.20;99.90;;;;;;5053695;28;20823;-68
2021/04/07 06:47:32;;;;;;;4.73;3.00;;;2.00;99.90;;;;;;5053496;28;20455;-69
2021/04/07 06:50:00;;;;;;;4.70;2.97;;;2.00;99.90;;;;;;5053309;28;20475;-69
2021/04/07 06:52:27;;;;;;;5.37;3.43;;;2.00;99.90;;;;;;5053224;28;20468;-68
2021/04/07 06:54:55;;;;;;;7.10;2.73;;;2.10;99.90;;;;;;5053525;28;20863;-69
2021/04/07 06:57:22;;;;;;;5.10;3.07;;;2.20;99.90;;;;;;5053418;28;20509;-69
2021/04/07 06:59:49;;;;;;;5.97;3.50;;;2.30;99.90;;;;;;5053314;28;20444;-69
2021/04/07 07:02:16;;;;;;;8.83;2.70;;;2.40;99.90;;;;;;5052970;28;20459;-69
2021/04/07 07:04:44;;;;;;;4.00;2.60;;;2.30;99.90;;;;;;5052735;28;20544;-69
2021/04/07 07:07:12;;;;;;;6.50;3.27;;;2.30;99.90;;;;;;5053018;28;20450;-69
2021/04/07 07:09:38;;;;;;;5.50;2.90;;;2.20;99.90;;;;;;5052756;28;20476;-69
2021/04/07 07:12:06;;;;;;;6.70;3.20;;;2.00;99.90;;;;;;5053092;28;20555;-69
2021/04/07 07:14:33;;;;;;;3.87;2.60;;;2.10;99.90;;;;;;5052703;28;20472;-71
2021/04/07 07:17:00;;;;;;;5.50;2.60;;;2.10;99.90;;;;;;5052986;28;20444;-71
2021/04/07 07:19:28;;;;;;;5.97;3.10;;;2.10;99.90;;;;;;5053098;28;20539;-72
2021/04/07 07:21:56;;;;;;;8.43;3.20;;;2.10;99.90;;;;;;5052773;28;21010;-70
2021/04/07 07:24:31;;;;;;;8.17;2.50;;;2.00;99.90;;;;;;5052626;28;20476;-71
2021/04/07 07:26:58;;;;;;;5.50;2.67;;;2.00;99.90;;;;;;5052819;28;20830;-72
2021/04/07 07:29:26;;;;;;;6.87;2.70;;;2.10;99.90;;;;;;5052597;28;20502;-72
2021/04/07 07:32:00;;;;;;;3.13;2.03;;;2.20;99.90;;;;;;5052744;28;20459;-70
2021/04/07 07:34:27;;;;;;;6.60;2.40;;;2.20;99.90;;;;;;5052234;28;21001;-70
2021/04/07 07:36:54;;;;;;;6.23;2.10;;;2.20;99.90;;;;;;5051906;28;20539;-69
2021/04/07 07:39:25;;;;;;;4.03;2.00;;;2.20;99.90;;;;;;5052587;28;20548;-71
2021/04/07 07:41:57;;;;;;;3.60;2.67;;;2.20;99.90;;;;;;5052186;28;20510;-70
2021/04/07 07:44:24;;;;;;;3.50;2.27;;;2.30;99.90;;;;;;5052125;28;21174;-69
2021/04/07 07:46:58;;;;;;;4.33;2.80;;;2.50;99.90;;;;;;5052450;28;20444;-70
2021/04/07 07:49:25;;;;;;;3.17;2.17;;;2.50;99.90;;;;;;5052632;28;20486;-69
2021/04/07 07:51:51;;;;;;;7.13;2.40;;;2.50;99.90;;;;;;5052441;28;20514;-69
2021/04/07 07:54:20;;;;;;;3.40;2.47;;;2.40;99.90;;;;;;5052022;28;20531;-70
2021/04/07 07:56:47;;;;;;;3.37;2.37;;;2.50;99.90;;;;;;5052250;28;20542;-70
2021/04/07 07:59:25;;;;;;;7.43;2.90;;;2.50;99.90;;;;;;5052547;28;20489;-72
2021/04/07 08:01:52;;;;;;;6.20;2.90;;;2.40;99.90;;;;;;5052700;28;20471;-74
2021/04/07 08:04:18;;;;;;;3.90;3.00;;;2.50;99.90;;;;;;5052144;28;20574;-73
2021/04/07 08:06:45;;;;;;;7.50;2.70;;;2.50;99.90;;;;;;5052127;28;20443;-72
2021/04/07 08:09:11;;;;;;;3.80;2.00;;;2.60;99.90;;;;;;5051850;28;20452;-72
2021/04/07 08:11:42;;;;;;;4.90;2.67;;;2.60;99.90;;;;;;5052022;28;20468;-72
2021/04/07 08:14:12;;;;;;;3.87;1.97;;;2.80;99.90;;;;;;5051831;28;20471;-71
2021/04/07 08:16:41;;;;;;;3.70;1.90;;;2.90;99.90;;;;;;5054448;28;20527;-71
2021/04/07 08:19:07;;;;;;;10.37;2.63;;;3.10;99.90;;;;;;5055320;28;20479;-72
2021/04/07 08:21:36;;;;;;;5.17;2.60;;;3.20;99.90;;;;;;5054958;28;20464;-71
2021/04/07 08:24:04;;;;;;;7.17;2.23;;;3.40;99.90;;;;;;5053994;28;20467;-75
2021/04/07 08:26:36;;;;;;;3.47;2.37;;;3.60;99.90;;;;;;5054544;28;20864;-71
2021/04/07 08:29:03;;;;;;;6.20;1.97;;;3.50;99.90;;;;;;5053144;28;20451;-72
2021/04/07 08:31:30;;;;;;;4.60;2.30;;;3.30;99.90;;;;;;5052644;28;20511;-70
2021/04/07 08:33:59;;;;;;;4.53;2.03;;;3.40;99.90;;;;;;5052496;28;20447;-70
2021/04/07 08:36:28;;;;;;;3.83;1.80;;;3.30;99.90;;;;;;5050322;28;20863;-71
2021/04/07 08:39:03;;;;;;;3.70;1.57;;;3.20;99.90;;;;;;5051023;28;20672;-71
2021/04/07 08:41:30;;;;;;;7.83;2.53;;;3.10;99.90;;;;;;5051075;28;20483;-70
2021/04/07 08:43:57;;;;;;;5.83;2.10;;;3.10;99.90;;;;;;5051420;28;20502;-71
2021/04/07 08:46:25;;;;;;;3.10;2.00;;;3.10;99.90;;;;;;5052377;28;20519;-71
2021/04/07 08:48:51;;;;;;;5.20;2.40;;;3.20;99.90;;;;;;5050753;28;21009;-70
2021/04/07 08:51:21;;;;;;;3.40;2.63;;;3.40;99.90;;;;;;5051503;28;20621;-69
2021/04/07 08:53:51;;;;;;;2.83;1.93;;;3.80;99.90;;;;;;5051126;28;20451;-70
2021/04/07 08:56:23;;;;;;;6.43;2.13;;;3.90;99.90;;;;;;5051833;28;20448;-70
2021/04/07 08:58:51;;;;;;;6.87;2.10;;;4.00;99.90;;;;;;5051400;28;20474;-70
2021/04/07 09:01:23;;;;;;;3.27;2.17;;;3.80;99.90;;;;;;5048959;28;20532;-70
2021/04/07 09:03:49;;;;;;;3.23;2.00;;;3.40;99.90;;;;;;5051542;28;20445;-70
2021/04/07 09:06:16;;;;;;;3.00;2.30;;;3.30;99.90;;;;;;5052449;28;20459;-71
2021/04/07 09:08:56;;;;;;;7.73;2.80;;;3.30;99.90;;;;;;5051657;28;20452;-70
2021/04/07 09:11:31;;;;;;;4.00;2.73;;;3.50;99.90;;;;;;5051357;28;20519;-70
2021/04/07 09:14:00;;;;;;;6.03;2.77;;;3.30;99.90;;;;;;5051523;28;20868;-71
2021/04/07 09:16:38;;;;;;;3.10;2.60;;;3.10;99.90;;;;;;5051812;28;20483;-71
2021/04/07 09:19:20;;;;;;;4.80;2.57;;;3.10;99.90;;;;;;5048898;28;20459;-72
2021/04/07 09:21:54;;;;;;;7.50;3.80;;;2.90;99.90;;;;;;5043963;28;20468;-71
2021/04/07 09:24:24;;;;;;;3.63;2.70;;;2.90;99.90;;;;;;5050409;28;21017;-70
2021/04/07 09:26:51;;;;;;;8.43;2.67;;;3.20;99.90;;;;;;5050675;28;20444;-71
2021/04/07 09:29:17;;;;;;;4.70;3.63;;;3.50;99.90;;;;;;5050236;28;20440;-71
2021/04/07 09:31:45;;;;;;;4.40;2.80;;;3.70;99.90;;;;;;5050673;28;20555;-70
2021/04/07 09:34:14;;;;;;;6.03;2.63;;;3.70;99.90;;;;;;5050195;28;20510;-70
2021/04/07 09:36:42;;;;;;;4.87;2.73;;;3.80;99.90;;;;;;5050381;28;20459;-70
2021/04/07 09:39:09;;;;;;;5.87;2.90;;;4.00;99.90;;;;;;5050765;28;20542;-69
2021/04/07 09:41:40;;;;;;;4.57;2.93;;;4.20;99.90;;;;;;5050289;28;20465;-69
2021/04/07 09:44:08;;;;;;;3.00;2.30;;;4.20;99.90;;;;;;5049718;28;20474;-70
2021/04/07 09:46:35;;;;;;;3.63;2.70;;;4.30;99.90;;;;;;5050002;28;20893;-71
2021/04/07 09:49:06;;;;;;;3.47;2.43;;;4.40;99.90;;;;;;5049620;28;20448;-69
2021/04/07 09:51:34;;;;;;;5.00;2.10;;;4.70;99.90;;;;;;5049162;28;20519;-69
2021/04/07 09:54:16;;;;;;;5.97;2.80;;;4.50;99.90;;;;;;5049299;28;20582;-70
2021/04/07 09:57:08;;;;;;;4.77;2.60;;;4.60;99.90;;;;;;5049486;28;20496;-70
2021/04/07 09:59:37;;;;;;;3.70;2.43;;;4.70;99.90;;;;;;5049258;28;20523;-70
2021/04/07 10:02:05;;;;;;;4.70;2.80;;;4.80;99.90;;;;;;5049056;28;21070;-69
2021/04/07 10:04:32;;;;;;;2.37;2.00;;;4.90;99.90;;;;;;5048892;28;20909;-70
2021/04/07 10:07:12;;;;;;;3.03;2.27;;;4.90;99.90;;;;;;5048911;28;20476;-69
2021/04/07 10:09:40;;;;;;;3.90;2.40;;;5.20;99.90;;;;;;5049241;28;20479;-70
2021/04/07 10:12:09;;;;;;;3.77;2.67;;;5.60;99.90;;;;;;5045996;28;20546;-70
2021/04/07 10:14:36;;;;;;;10.27;2.80;;;5.40;99.90;;;;;;5047471;28;20444;-71
2021/04/07 10:17:12;;;;;;;5.47;2.70;;;5.00;99.90;;;;;;5048251;28;20490;-71
2021/04/07 10:19:38;;;;;;;3.40;2.50;;;4.80;99.90;;;;;;5047924;28;20497;-70
2021/04/07 10:22:07;;;;;;;4.80;2.90;;;4.50;99.90;;;;;;5045830;28;20475;-71
2021/04/07 10:24:36;;;;;;;3.23;2.30;;;4.20;99.90;;;;;;5045969;28;21036;-71
2021/04/07 10:27:03;;;;;;;5.30;2.30;;;4.20;99.90;;;;;;5047616;28;20970;-69
2021/04/07 10:29:33;;;;;;;3.90;2.33;;;4.40;99.90;;;;;;5047626;28;20526;-71
2021/04/07 10:31:59;;;;;;;3.17;2.30;;;4.20;99.90;;;;;;5047781;28;20837;-71
2021/04/07 10:34:30;;;;;;;3.00;2.03;;;4.10;99.90;;;;;;5046987;28;21007;-71
2021/04/07 10:36:57;;;;;;;6.23;3.00;;;4.00;99.90;;;;;;5047555;28;21087;-68
2021/04/07 10:39:24;;;;;;;8.57;2.40;;;4.30;99.90;;;;;;5039303;28;20449;-69
2021/04/07 10:41:51;;;;;;;4.07;2.30;;;4.60;99.90;;;;;;5042716;28;20524;-68
2021/04/07 10:44:25;;;;;;;4.60;2.70;;;4.80;99.90;;;;;;5036733;28;20545;-69
2021/04/07 10:46:53;;;;;;;5.33;2.90;;;4.60;99.90;;;;;;5044936;28;20472;-69
2021/04/07 10:49:20;;;;;;;3.80;2.60;;;4.80;99.90;;;;;;5037281;28;20445;-68
2021/04/07 10:51:58;;;;;;;3.60;1.90;;;5.10;99.90;;;;;;5028373;28;20574;-68
2021/04/07 10:54:25;;;;;;;4.83;2.70;;;4.90;99.90;;;;;;5027672;28;20935;-68
2021/04/07 10:56:58;;;;;;;4.63;2.67;;;4.90;99.90;;;;;;5027448;28;20506;-69
2021/04/07 10:59:28;;;;;;;3.00;1.70;;;5.00;99.90;;;;;;5027561;28;20467;-69
2021/04/07 11:01:55;;;;;;;2.57;1.80;;;4.90;99.90;;;;;;5027404;28;20472;-69
2021/04/07 11:04:21;;;;;;;3.27;1.93;;;5.10;99.90;;;;;;5026457;28;20457;-68
2021/04/07 11:06:54;;;;;;;2.90;2.17;;;5.10;99.50;;;;;;5027769;28;21159;-68
2021/04/07 11:09:24;;;;;;;2.50;1.83;;;5.30;99.90;;;;;;5027310;28;20478;-69
2021/04/07 11:11:51;;;;;;;4.13;2.10;;;5.40;98.70;;;;;;5028360;28;20487;-68
2021/04/07 11:14:18;;;;;;;3.80;2.27;;;4.80;98.50;;;;;;5029794;28;20451;-68
2021/04/07 11:16:44;;;;;;;5.70;2.63;;;4.80;99.50;;;;;;5048271;28;20550;-69
2021/04/07 11:19:16;;;;;;;4.07;2.10;;;5.00;99.20;;;;;;5053003;28;20551;-68
2021/04/07 11:21:42;;;;;;;5.10;2.63;;;5.20;98.80;;;;;;5033877;28;20586;-68
2021/04/07 11:24:09;;;;;;;5.57;2.90;;;5.20;98.80;;;;;;5032875;28;20528;-68
2021/04/07 11:26:35;;;;;;;3.53;1.80;;;5.40;98.10;;;;;;5033199;28;20503;-68
2021/04/07 11:29:02;;;;;;;5.13;1.87;;;5.90;97.80;;;;;;5033077;28;20495;-69
2021/04/07 11:31:31;;;;;;;9.83;2.10;;;6.10;97.00;;;;;;5033192;28;20487;-70
2021/04/07 11:34:01;;;;;;;4.20;2.00;;;6.10;97.40;;;;;;5033086;28;20542;-69
2021/04/07 11:36:43;;;;;;;3.60;2.10;;;6.40;97.20;;;;;;5032946;28;20452;-70
2021/04/07 11:39:15;;;;;;;4.13;1.90;;;6.90;96.90;;;;;;5033126;28;20452;-69
2021/04/07 11:42:00;;;;;;;3.27;1.93;;;7.50;94.10;;;;;;5032820;28;20480;-70
2021/04/07 11:44:30;;;;;;;4.90;2.13;;;7.90;92.70;;;;;;5048286;28;20456;-69
2021/04/07 11:46:57;;;;;;;4.53;1.70;;;8.20;93.10;;;;;;5065031;28;20446;-70
2021/04/07 11:49:24;;;;;;;3.70;2.13;;;7.80;90.30;;;;;;5069800;28;20447;-69
2021/04/07 11:51:51;;;;;;;4.50;2.07;;;7.40;89.60;;;;;;5069119;28;20488;-69
2021/04/07 11:54:17;;;;;;;4.70;2.33;;;7.10;90.50;;;;;;5061170;28;20448;-68
2021/04/07 11:56:46;;;;;;;5.00;1.80;;;6.90;90.60;;;;;;5061408;28;20477;-68
2021/04/07 11:59:14;;;;;;;7.17;2.47;;;6.70;90.50;;;;;;5052849;28;20456;-70
2021/04/07 12:01:41;;;;;;;2.87;1.77;;;6.40;90.70;;;;;;5049964;28;20492;-70
2021/04/07 12:04:07;;;;;;;5.37;2.10;;;6.10;91.30;;;;;;5051557;28;20451;-69
2021/04/07 12:06:33;;;;;;;5.43;2.47;;;5.80;91.20;;;;;;5052005;28;20472;-69
2021/04/07 12:09:01;;;;;;;3.23;1.90;;;5.40;92.00;;;;;;5052018;28;20526;-69
2021/04/07 12:11:28;;;;;;;4.13;1.90;;;5.10;92.80;;;;;;5051463;28;20575;-69
2021/04/07 12:13:54;;;;;;;4.93;2.10;;;5.00;93.70;;;;;;5051904;28;20440;-70
2021/04/07 12:16:21;;;;;;;3.57;1.70;;;4.80;95.00;;;;;;5052245;28;20490;-70
2021/04/07 12:18:47;;;;;;;4.33;1.73;;;4.80;94.90;;;;;;5051933;28;20955;-71
2021/04/07 12:21:15;;;;;;;3.40;1.80;;;5.00;95.40;;;;;;5051488;28;20463;-71
2021/04/07 12:23:41;;;;;;;4.50;1.73;;;5.00;95.80;;;;;;5051949;28;20558;-70
2021/04/07 12:26:09;;;;;;;8.03;1.83;;;5.10;96.40;;;;;;5052124;28;20886;-70
2021/04/07 12:28:35;;;;;;;3.20;1.90;;;5.20;96.40;;;;;;5050819;28;20471;-70
2021/04/07 12:31:02;;;;;;;3.03;1.40;;;5.30;96.60;;;;;;5038439;28;20581;-70
2021/04/07 12:33:29;;;;;;;5.10;1.93;;;5.20;97.30;;;;;;5037142;28;20526;-70
2021/04/07 12:35:57;;;;;;;3.20;1.97;;;5.10;98.10;;;;;;5050057;28;20451;-69
2021/04/07 12:38:25;;;;;;;4.33;2.20;;;5.00;98.50;;;;;;5050317;28;20493;-73
2021/04/07 12:40:54;;;;;;;5.63;2.80;;;5.20;98.90;;;;;;5049625;28;20935;-71
2021/04/07 12:43:21;;;;;;;5.00;2.30;;;5.40;99.40;;;;;;5038167;28;20464;-69
2021/04/07 12:45:48;;;;;;;4.60;1.70;;;5.60;98.80;;;;;;5041296;28;20807;-72
2021/04/07 12:48:14;;;;;;;4.30;2.23;;;5.70;98.40;;;;;;5049209;28;20539;-67
2021/04/07 12:50:42;;;;;;;3.97;2.27;;;5.90;99.10;;;;;;5048050;28;20567;-70
2021/04/07 12:53:08;;;;;;;8.47;2.10;;;5.70;97.50;;;;;;5046389;28;20452;-70
2021/04/07 12:55:54;;;;;;;6.40;2.20;;;5.50;97.80;;;;;;5046604;28;20958;-70
2021/04/07 12:58:21;;;;;;;3.83;2.10;;;5.20;97.50;;;;;;5043933;28;21855;-70